Time;durP1;ratioP1;P1;durP2;ratioP2;P2;SDS_P1;SDS_P2;PMS_P1;PMS_P2;Temp;Humidity;BMP_temperature;BMP_pressure;BME280_temperature;BME280_humidity;BME280_pressure;Samples;Min_cycle;Max_cycle;Signal;HPM_P1;HPM_P2
2022/03/25 00:02:23;;;;;;;77.10;61.10;;;7.10;99.90;;;;;;5059422;28;20045;-74
2022/03/25 00:04:50;;;;;;;81.75;63.35;;;7.00;99.90;;;;;;5055995;28;20120;-75
2022/03/25 00:07:15;;;;;;;77.13;60.30;;;7.10;99.90;;;;;;5054609;28;20392;-74
2022/03/25 00:09:41;;;;;;;76.30;59.37;;;7.10;99.90;;;;;;5055121;28;20057;-75
2022/03/25 00:12:07;;;;;;;77.90;62.37;;;7.00;99.90;;;;;;5055754;28;20063;-74
2022/03/25 00:14:34;;;;;;;78.47;57.97;;;7.00;99.90;;;;;;5055582;28;20041;-74
2022/03/25 00:17:00;;;;;;;74.47;59.60;;;7.00;99.90;;;;;;5054398;28;20045;-74
2022/03/25 00:19:26;;;;;;;76.28;59.70;;;7.00;99.90;;;;;;5055619;28;20139;-74
2022/03/25 00:21:52;;;;;;;74.77;59.47;;;7.00;99.90;;;;;;5055417;28;20540;-75
2022/03/25 00:24:18;;;;;;;76.07;60.47;;;6.90;99.90;;;;;;5055447;28;20087;-74
2022/03/25 00:26:44;;;;;;;76.77;61.00;;;6.90;99.90;;;;;;5054867;28;20072;-75
2022/03/25 00:29:09;;;;;;;81.73;63.13;;;6.80;99.90;;;;;;5055465;28;20037;-74
2022/03/25 00:31:35;;;;;;;79.20;60.40;;;6.80;99.90;;;;;;5055534;28;20124;-74
2022/03/25 00:34:01;;;;;;;82.73;62.13;;;6.80;99.90;;;;;;5055024;28;20416;-75
2022/03/25 00:36:27;;;;;;;75.50;58.20;;;6.70;99.90;;;;;;5055459;28;20485;-74
2022/03/25 00:38:53;;;;;;;80.03;61.13;;;;;;;;;;5055014;28;20413;-74
2022/03/25 00:41:18;;;;;;;89.38;66.10;;;6.80;99.90;;;;;;5055168;28;20080;-75
2022/03/25 00:43:46;;;;;;;81.27;62.70;;;6.60;99.90;;;;;;5054880;28;20083;-75
2022/03/25 00:46:12;;;;;;;76.53;61.17;;;6.60;99.90;;;;;;5055406;28;20049;-75
2022/03/25 00:48:42;;;;;;;76.78;59.83;;;6.60;99.90;;;;;;5037644;28;20057;-75
2022/03/25 00:51:09;;;;;;;81.10;61.55;;;6.60;99.90;;;;;;5055038;28;20056;-75
2022/03/25 00:53:34;;;;;;;83.43;60.67;;;6.60;99.90;;;;;;5054908;28;20040;-74
2022/03/25 00:56:01;;;;;;;75.60;59.87;;;6.50;99.90;;;;;;5054684;28;20045;-74
2022/03/25 00:58:27;;;;;;;76.35;61.08;;;6.60;99.90;;;;;;5053813;28;20049;-75
2022/03/25 01:00:53;;;;;;;85.18;63.03;;;6.60;99.90;;;;;;5054370;28;20055;-75
2022/03/25 01:03:19;;;;;;;81.30;62.83;;;6.50;99.90;;;;;;5054833;28;20045;-74
2022/03/25 01:05:45;;;;;;;79.80;62.07;;;6.60;99.90;;;;;;5054562;28;20052;-75
2022/03/25 01:08:11;;;;;;;82.50;63.87;;;6.60;99.90;;;;;;5054758;28;20056;-75
2022/03/25 01:10:37;;;;;;;80.57;62.03;;;6.50;99.90;;;;;;5054844;28;20057;-74
2022/03/25 01:13:04;;;;;;;87.57;62.15;;;6.50;99.90;;;;;;5054251;28;20899;-75
2022/03/25 01:15:30;;;;;;;83.63;64.60;;;6.50;99.90;;;;;;5054554;28;20056;-75
2022/03/25 01:17:56;;;;;;;91.03;65.43;;;6.50;99.90;;;;;;5054294;28;20041;-75
2022/03/25 01:20:23;;;;;;;81.57;63.63;;;6.60;99.90;;;;;;5054784;28;20037;-75
2022/03/25 01:22:49;;;;;;;80.57;62.90;;;6.60;99.90;;;;;;5053209;28;20056;-75
2022/03/25 01:25:16;;;;;;;84.75;65.70;;;6.60;99.90;;;;;;5054443;28;20041;-75
2022/03/25 01:27:43;;;;;;;86.28;62.53;;;6.50;99.90;;;;;;5054442;28;20057;-75
2022/03/25 01:30:10;;;;;;;84.28;65.85;;;6.50;99.90;;;;;;5054096;28;20053;-75
2022/03/25 01:32:39;;;;;;;84.43;63.47;;;6.40;99.90;;;;;;5036775;28;20083;-74
2022/03/25 01:35:11;;;;;;;85.13;61.60;;;6.50;99.90;;;;;;5053881;28;20083;-75
2022/03/25 01:37:38;;;;;;;80.63;63.97;;;6.40;99.90;;;;;;5054086;28;20049;-74
2022/03/25 01:40:09;;;;;;;79.72;62.35;;;6.40;99.90;;;;;;5053794;28;20477;-75
2022/03/25 01:42:41;;;;;;;82.47;63.35;;;6.40;99.90;;;;;;5054091;28;20057;-75
2022/03/25 01:45:09;;;;;;;80.72;62.05;;;6.40;99.90;;;;;;5053377;28;20493;-75
2022/03/25 01:47:36;;;;;;;76.82;60.42;;;6.40;99.90;;;;;;5036367;28;20063;-75
2022/03/25 01:50:03;;;;;;;78.60;59.17;;;6.30;99.90;;;;;;5053294;28;20481;-75
2022/03/25 01:52:29;;;;;;;79.75;59.55;;;6.40;99.90;;;;;;5052644;28;20048;-75
2022/03/25 01:55:12;;;;;;;77.88;59.55;;;6.30;99.90;;;;;;5053531;28;20044;-75
2022/03/25 01:57:38;;;;;;;77.75;59.97;;;6.30;99.90;;;;;;5053823;28;20047;-75
2022/03/25 02:00:06;;;;;;;75.33;57.97;;;6.30;99.90;;;;;;5052774;28;20053;-75
2022/03/25 02:02:32;;;;;;;79.22;59.72;;;6.30;99.90;;;;;;5055835;28;20048;-73
2022/03/25 02:04:59;;;;;;;71.80;56.83;;;6.20;99.90;;;;;;5052561;28;20052;-73
2022/03/25 02:07:25;;;;;;;75.97;57.97;;;6.20;99.90;;;;;;5053585;28;20052;-72
2022/03/25 02:09:51;;;;;;;75.90;56.70;;;6.30;99.90;;;;;;5053242;28;20052;-73
2022/03/25 02:12:17;;;;;;;77.00;58.10;;;6.20;99.90;;;;;;5051853;28;20057;-72
2022/03/25 02:14:43;;;;;;;72.60;56.42;;;6.20;99.90;;;;;;5051938;28;20048;-72
2022/03/25 02:17:09;;;;;;;74.73;56.63;;;6.20;99.90;;;;;;5053120;28;20045;-72
2022/03/25 02:19:35;;;;;;;73.10;54.13;;;;;;;;;;5052265;28;20055;-72
2022/03/25 02:22:01;;;;;;;70.07;55.25;;;;;;;;;;5053021;28;20124;-72
2022/03/25 02:24:27;;;;;;;69.38;53.65;;;;;;;;;;5052938;28;20576;-72
2022/03/25 02:26:54;;;;;;;71.20;55.17;;;6.10;99.90;;;;;;5052939;28;20127;-73
2022/03/25 02:29:20;;;;;;;69.35;53.30;;;6.10;99.90;;;;;;5053244;28;20140;-72
2022/03/25 02:31:45;;;;;;;69.63;53.33;;;6.00;99.90;;;;;;5053177;28;20521;-72
2022/03/25 02:34:12;;;;;;;75.97;57.20;;;6.00;99.90;;;;;;5052514;28;20095;-72
2022/03/25 02:36:39;;;;;;;70.50;55.97;;;6.00;99.90;;;;;;5053285;28;20099;-72
2022/03/25 02:39:06;;;;;;;68.63;54.45;;;6.00;99.90;;;;;;5052755;28;20049;-72
2022/03/25 02:41:32;;;;;;;69.35;55.03;;;5.90;99.90;;;;;;5052994;28;20049;-72
2022/03/25 02:43:59;;;;;;;69.60;54.30;;;5.90;99.90;;;;;;5052648;28;20041;-72
2022/03/25 02:46:26;;;;;;;73.43;56.22;;;5.90;99.90;;;;;;5052984;28;20053;-72
2022/03/25 02:48:52;;;;;;;67.75;54.08;;;5.90;99.90;;;;;;5052834;28;20049;-73
2022/03/25 02:51:18;;;;;;;66.35;52.75;;;5.80;99.90;;;;;;5052522;28;20117;-73
2022/03/25 02:53:43;;;;;;;69.50;54.57;;;5.80;99.90;;;;;;5052866;28;20072;-73
2022/03/25 02:56:09;;;;;;;67.43;52.53;;;5.80;99.90;;;;;;5051322;28;20495;-72
2022/03/25 02:58:35;;;;;;;67.73;51.73;;;5.70;99.90;;;;;;5051651;28;20041;-72
2022/03/25 03:01:01;;;;;;;70.47;52.13;;;5.70;99.90;;;;;;5052618;28;20099;-73
2022/03/25 03:03:26;;;;;;;68.37;52.30;;;5.70;99.90;;;;;;5052428;28;20092;-73
2022/03/25 03:05:53;;;;;;;72.23;51.03;;;5.70;99.90;;;;;;5052735;28;20044;-73
2022/03/25 03:08:19;;;;;;;65.75;51.22;;;5.60;99.90;;;;;;5051436;28;20049;-72
2022/03/25 03:10:44;;;;;;;62.73;49.30;;;5.70;99.90;;;;;;5052855;28;20056;-73
2022/03/25 03:13:11;;;;;;;63.20;49.53;;;5.60;99.90;;;;;;5052371;28;20092;-73
2022/03/25 03:15:37;;;;;;;64.00;48.85;;;5.60;99.90;;;;;;5052631;28;20282;-73
2022/03/25 03:18:03;;;;;;;61.63;47.65;;;5.60;99.90;;;;;;5052343;28;20056;-72
2022/03/25 03:20:29;;;;;;;62.72;49.60;;;5.60;99.90;;;;;;5052629;28;20128;-72
2022/03/25 03:22:57;;;;;;;59.33;47.60;;;5.50;99.90;;;;;;5052398;28;20413;-75
2022/03/25 03:25:23;;;;;;;60.88;48.17;;;5.50;99.90;;;;;;5056536;28;20398;-72
2022/03/25 03:27:49;;;;;;;57.05;45.08;;;5.50;99.90;;;;;;5056622;28;20047;-72
2022/03/25 03:30:15;;;;;;;56.50;44.87;;;5.60;99.90;;;;;;5056319;28;20041;-73
2022/03/25 03:32:41;;;;;;;58.30;45.28;;;5.60;99.90;;;;;;5055326;28;20048;-72
2022/03/25 03:35:07;;;;;;;54.57;44.00;;;5.50;99.90;;;;;;5054884;28;20067;-73
2022/03/25 03:37:44;;;;;;;55.13;44.00;;;5.50;99.90;;;;;;5056482;28;20358;-73
2022/03/25 03:40:12;;;;;;;55.33;42.72;;;5.50;99.90;;;;;;5056003;28;20048;-73
2022/03/25 03:42:38;;;;;;;49.85;40.15;;;5.50;99.90;;;;;;5055370;28;20455;-73
2022/03/25 03:45:06;;;;;;;48.90;39.38;;;5.50;99.90;;;;;;5054796;28;20124;-73
2022/03/25 03:47:33;;;;;;;46.15;37.28;;;5.40;99.90;;;;;;5056281;28;20099;-72
2022/03/25 03:49:59;;;;;;;49.05;38.53;;;5.40;99.90;;;;;;5056119;28;20044;-76
2022/03/25 03:52:25;;;;;;;43.97;36.10;;;5.40;99.90;;;;;;5054958;28;20047;-74
2022/03/25 03:54:51;;;;;;;45.80;37.25;;;5.30;99.90;;;;;;5056150;28;20048;-74
2022/03/25 03:57:17;;;;;;;45.73;36.47;;;5.30;99.90;;;;;;5055882;28;20049;-74
2022/03/25 03:59:42;;;;;;;45.70;35.60;;;5.30;99.90;;;;;;5058060;28;20457;-74
2022/03/25 04:02:08;;;;;;;44.07;36.17;;;5.20;99.90;;;;;;5057982;28;20049;-73
2022/03/25 04:04:34;;;;;;;43.10;36.43;;;5.10;99.90;;;;;;5054867;28;20045;-74
2022/03/25 04:07:00;;;;;;;47.63;37.17;;;5.10;99.90;;;;;;5055776;28;20442;-77
2022/03/25 04:09:26;;;;;;;44.70;37.35;;;5.20;99.90;;;;;;5054556;28;20345;-74
2022/03/25 04:11:53;;;;;;;46.08;37.85;;;5.20;99.90;;;;;;5055960;28;20068;-73
2022/03/25 04:14:19;;;;;;;44.67;37.03;;;5.20;99.90;;;;;;5053874;28;20051;-73
2022/03/25 04:16:46;;;;;;;40.88;34.03;;;5.20;99.90;;;;;;5054544;28;20149;-73
2022/03/25 04:19:12;;;;;;;43.53;34.38;;;5.20;99.90;;;;;;5055475;28;20049;-73
2022/03/25 04:21:38;;;;;;;42.30;34.95;;;5.10;99.90;;;;;;5055668;28;20045;-73
2022/03/25 04:24:04;;;;;;;44.97;35.30;;;5.10;99.90;;;;;;5054332;28;20047;-74
2022/03/25 04:26:30;;;;;;;44.03;34.63;;;5.00;99.90;;;;;;5054012;28;20480;-73
2022/03/25 04:28:56;;;;;;;44.17;35.27;;;5.10;99.90;;;;;;5055728;28;20056;-73
2022/03/25 04:31:22;;;;;;;46.43;36.60;;;5.00;99.90;;;;;;5055212;28;20846;-74
2022/03/25 04:33:47;;;;;;;44.30;36.63;;;5.00;99.90;;;;;;5055387;28;20091;-74
2022/03/25 04:36:14;;;;;;;46.20;35.90;;;5.00;99.90;;;;;;5054554;28;20170;-74
2022/03/25 04:38:41;;;;;;;44.38;35.47;;;5.00;99.90;;;;;;5055299;28;20052;-74
2022/03/25 04:41:09;;;;;;;45.10;37.10;;;5.00;99.90;;;;;;5054675;28;20455;-73
2022/03/25 04:43:39;;;;;;;46.60;37.15;;;4.90;99.90;;;;;;5055367;28;20049;-73
2022/03/25 04:46:05;;;;;;;48.03;36.33;;;4.90;99.90;;;;;;5054855;28;20049;-74
2022/03/25 04:48:32;;;;;;;42.58;35.05;;;4.90;99.90;;;;;;5055094;28;20107;-74
2022/03/25 04:50:58;;;;;;;43.28;35.28;;;4.90;99.90;;;;;;5037507;28;20041;-74
2022/03/25 04:53:25;;;;;;;44.83;35.42;;;4.90;99.90;;;;;;5053698;28;20618;-74
2022/03/25 04:55:52;;;;;;;44.33;34.90;;;4.80;99.90;;;;;;5055205;28;20071;-73
2022/03/25 04:58:18;;;;;;;45.70;36.03;;;4.90;99.90;;;;;;5053407;28;20350;-74
2022/03/25 05:00:44;;;;;;;41.75;35.55;;;4.80;99.90;;;;;;5054864;28;20083;-74
2022/03/25 05:03:11;;;;;;;45.13;35.83;;;4.80;99.90;;;;;;5054516;28;20466;-74
2022/03/25 05:05:37;;;;;;;45.20;36.33;;;4.80;99.90;;;;;;5054805;28;20128;-74
2022/03/25 05:08:03;;;;;;;43.65;36.22;;;4.80;99.90;;;;;;5053792;28;20086;-73
2022/03/25 05:10:29;;;;;;;46.00;36.10;;;4.80;99.90;;;;;;5054292;28;20445;-73
2022/03/25 05:12:55;;;;;;;47.90;37.43;;;4.70;99.90;;;;;;5054640;28;20135;-73
2022/03/25 05:15:21;;;;;;;45.20;36.53;;;4.70;99.90;;;;;;5054320;28;20045;-74
2022/03/25 05:17:48;;;;;;;44.17;35.60;;;4.70;99.90;;;;;;5054602;28;20045;-74
2022/03/25 05:20:16;;;;;;;45.72;36.33;;;4.70;99.90;;;;;;5054220;28;20087;-74
2022/03/25 05:22:42;;;;;;;45.25;36.33;;;4.70;99.90;;;;;;5054767;28;20115;-73
2022/03/25 05:25:08;;;;;;;49.42;38.22;;;4.70;99.90;;;;;;5054283;28;20045;-78
2022/03/25 05:27:53;;;;;;;48.17;36.58;;;4.70;99.90;;;;;;5054183;28;20485;-74
2022/03/25 05:30:31;;;;;;;46.97;36.97;;;4.70;99.90;;;;;;5054157;28;20044;-74
2022/03/25 05:32:58;;;;;;;45.25;36.10;;;4.70;99.90;;;;;;5054298;28;20054;-73
2022/03/25 05:35:25;;;;;;;46.83;36.50;;;4.60;99.90;;;;;;5053989;28;20048;-74
2022/03/25 05:37:52;;;;;;;47.20;36.55;;;4.70;99.90;;;;;;5053016;28;20044;-74
2022/03/25 05:40:20;;;;;;;44.30;35.13;;;4.70;99.90;;;;;;5052636;28;20059;-74
2022/03/25 05:42:46;;;;;;;47.10;36.22;;;4.70;99.90;;;;;;5054135;28;20053;-74
2022/03/25 05:45:12;;;;;;;46.72;34.75;;;4.70;99.90;;;;;;5053793;28;20056;-74
2022/03/25 05:47:40;;;;;;;48.38;38.42;;;4.70;99.90;;;;;;5035605;28;20517;-74
2022/03/25 05:50:08;;;;;;;43.83;35.90;;;4.70;99.90;;;;;;5054300;28;20059;-74
2022/03/25 05:52:34;;;;;;;44.15;35.13;;;4.60;99.90;;;;;;5052377;28;20052;-73
2022/03/25 05:55:01;;;;;;;45.85;35.55;;;4.70;99.90;;;;;;5053806;28;20041;-73
2022/03/25 05:57:26;;;;;;;44.53;35.78;;;4.70;99.90;;;;;;5053608;28;20071;-74
2022/03/25 05:59:52;;;;;;;45.67;35.73;;;4.70;99.90;;;;;;5053852;28;20037;-74
2022/03/25 06:02:18;;;;;;;43.67;35.20;;;4.70;99.90;;;;;;5053374;28;20053;-73
2022/03/25 06:04:44;;;;;;;43.50;35.10;;;4.80;99.90;;;;;;5053389;28;20052;-74
2022/03/25 06:07:11;;;;;;;45.13;35.47;;;4.80;99.90;;;;;;5053743;28;20060;-74
2022/03/25 06:09:36;;;;;;;46.88;37.45;;;4.90;99.90;;;;;;5053481;28;20061;-74
2022/03/25 06:12:02;;;;;;;43.37;36.00;;;4.90;99.90;;;;;;5053826;28;20103;-74
2022/03/25 06:14:28;;;;;;;44.58;36.33;;;5.00;99.90;;;;;;5053234;28;20048;-74
2022/03/25 06:16:54;;;;;;;43.53;35.37;;;5.00;99.90;;;;;;5053597;28;20543;-74
2022/03/25 06:19:19;;;;;;;44.77;36.20;;;5.10;99.90;;;;;;5053393;28;20041;-74
2022/03/25 06:21:45;;;;;;;45.57;35.90;;;5.20;99.90;;;;;;5052436;28;20071;-74
2022/03/25 06:24:11;;;;;;;48.30;36.77;;;5.20;99.90;;;;;;5053316;28;20071;-74
2022/03/25 06:26:37;;;;;;;48.83;36.75;;;5.30;99.90;;;;;;5051904;28;20057;-74
2022/03/25 06:29:04;;;;;;;47.33;37.60;;;5.40;99.90;;;;;;5053356;28;20053;-74
2022/03/25 06:31:29;;;;;;;46.35;35.20;;;5.50;99.90;;;;;;5052888;28;20041;-74
2022/03/25 06:33:55;;;;;;;46.50;37.57;;;5.50;99.90;;;;;;5053287;28;20477;-74
2022/03/25 06:36:22;;;;;;;49.33;36.33;;;5.60;99.90;;;;;;5053076;28;20466;-74
2022/03/25 06:38:48;;;;;;;44.25;36.05;;;5.60;99.90;;;;;;5053321;28;20052;-74
2022/03/25 06:41:14;;;;;;;63.63;41.85;;;5.70;99.90;;;;;;5053162;28;20049;-74
2022/03/25 06:43:39;;;;;;;52.03;39.93;;;5.80;99.90;;;;;;5052585;28;20097;-74
2022/03/25 06:46:05;;;;;;;56.20;42.70;;;5.90;99.90;;;;;;5052982;28;20045;-74
2022/03/25 06:48:32;;;;;;;51.60;38.80;;;6.00;99.90;;;;;;5051467;28;20047;-74
2022/03/25 06:51:01;;;;;;;54.50;42.38;;;6.10;99.90;;;;;;5053177;28;20095;-74
2022/03/25 06:53:28;;;;;;;57.03;43.05;;;6.20;99.90;;;;;;5051301;28;20102;-74
2022/03/25 06:55:54;;;;;;;59.40;44.53;;;6.30;99.90;;;;;;5051735;28;20404;-74
2022/03/25 06:58:20;;;;;;;54.33;40.58;;;6.60;99.90;;;;;;5052346;28;20044;-73
2022/03/25 07:00:46;;;;;;;54.30;40.22;;;7.10;99.90;;;;;;5051656;28;20110;-74
2022/03/25 07:03:14;;;;;;;50.38;39.67;;;7.90;99.90;;;;;;5052828;28;20052;-74
2022/03/25 07:05:40;;;;;;;50.38;38.65;;;;;;;;;;5052492;28;20123;-74
2022/03/25 07:08:06;;;;;;;46.00;35.38;;;10.20;99.90;;;;;;5052943;28;20124;-75
2022/03/25 07:10:33;;;;;;;45.58;34.25;;;11.10;99.90;;;;;;5052001;28;20053;-76
2022/03/25 07:12:59;;;;;;;45.05;36.40;;;12.00;99.90;;;;;;5052756;28;20079;-75
2022/03/25 07:15:25;;;;;;;43.87;35.83;;;12.80;99.90;;;;;;5051187;28;20060;-75
2022/03/25 07:17:52;;;;;;;42.27;36.10;;;13.60;99.90;;;;;;5052845;28;20276;-75
2022/03/25 07:20:22;;;;;;;43.83;34.33;;;14.10;97.30;;;;;;5052737;28;20123;-73
2022/03/25 07:22:50;;;;;;;42.47;34.20;;;14.70;92.60;;;;;;5052621;28;20279;-74
2022/03/25 07:25:17;;;;;;;39.27;31.57;;;15.10;89.00;;;;;;5052720;28;20341;-74
2022/03/25 07:27:44;;;;;;;37.60;32.53;;;15.50;86.20;;;;;;5051127;28;20337;-74
2022/03/25 07:30:11;;;;;;;39.37;30.70;;;15.90;84.80;;;;;;5052658;28;20817;-73
2022/03/25 07:32:37;;;;;;;37.13;30.93;;;16.10;76.00;;;;;;5052309;28;20315;-74
2022/03/25 07:35:03;;;;;;;35.43;29.60;;;16.30;72.70;;;;;;5052429;28;20335;-73
2022/03/25 07:37:29;;;;;;;35.70;30.53;;;16.50;70.90;;;;;;5052285;28;20060;-74
2022/03/25 07:39:54;;;;;;;36.73;30.77;;;16.90;70.00;;;;;;5051221;28;20283;-75
2022/03/25 07:42:20;;;;;;;32.90;29.40;;;17.10;67.30;;;;;;5052524;28;20053;-74
2022/03/25 07:44:47;;;;;;;31.00;27.70;;;17.00;66.90;;;;;;5052309;28;20094;-75
2022/03/25 07:47:13;;;;;;;30.03;26.53;;;16.30;64.90;;;;;;5052396;28;20049;-75
2022/03/25 07:49:40;;;;;;;31.60;26.40;;;15.30;64.40;;;;;;5052093;28;20283;-74
2022/03/25 07:52:07;;;;;;;30.77;26.13;;;14.60;65.50;;;;;;5052365;28;20287;-73
2022/03/25 07:54:34;;;;;;;28.40;24.77;;;14.10;65.80;;;;;;5050881;28;20342;-74
2022/03/25 07:56:59;;;;;;;31.40;24.17;;;13.20;66.70;;;;;;5052043;28;20805;-76
2022/03/25 07:59:26;;;;;;;30.03;24.93;;;12.90;68.50;;;;;;5050862;28;20288;-76
2022/03/25 08:01:53;;;;;;;28.30;23.40;;;12.70;69.60;;;;;;5052541;28;20052;-76
2022/03/25 08:04:20;;;;;;;30.10;22.37;;;12.50;69.00;;;;;;5053249;28;20288;-80
2022/03/25 08:06:46;;;;;;;29.67;22.60;;;12.40;67.70;;;;;;5051104;28;20322;-73
2022/03/25 08:09:12;;;;;;;30.27;22.40;;;12.30;67.50;;;;;;5052072;28;20339;-72
2022/03/25 08:11:39;;;;;;;32.67;22.97;;;12.20;67.10;;;;;;5053922;28;20084;-73
2022/03/25 08:14:06;;;;;;;30.10;22.07;;;12.10;68.00;;;;;;5054468;28;20045;-73
2022/03/25 08:16:32;;;;;;;32.83;22.77;;;12.00;67.50;;;;;;5055517;28;20295;-73
2022/03/25 08:18:58;;;;;;;28.80;22.17;;;12.10;67.10;;;;;;5055720;28;20299;-73
2022/03/25 08:21:24;;;;;;;29.70;21.90;;;12.00;66.30;;;;;;5055869;28;20740;-72
2022/03/25 08:29:20;;;;;;;30.67;21.00;;;11.70;65.20;;;;;;5055610;28;20338;-72
2022/03/25 08:31:46;;;;;;;27.73;20.13;;;11.70;65.60;;;;;;5054086;28;20325;-74
2022/03/25 08:34:14;;;;;;;29.07;20.73;;;11.60;66.00;;;;;;5054391;28;20422;-72
2022/03/25 08:36:44;;;;;;;26.70;19.90;;;11.70;66.10;;;;;;5054810;28;20283;-73
2022/03/25 08:39:10;;;;;;;31.33;21.80;;;11.70;66.00;;;;;;5055424;28;20359;-72
2022/03/25 08:41:36;;;;;;;31.70;20.97;;;11.70;66.20;;;;;;5055026;28;20373;-73
2022/03/25 08:44:01;;;;;;;27.40;19.73;;;11.60;66.80;;;;;;5055413;28;20041;-73
2022/03/25 08:46:28;;;;;;;26.30;17.90;;;11.70;67.20;;;;;;5054264;28;20405;-73
2022/03/25 08:48:54;;;;;;;28.17;19.47;;;11.80;66.80;;;;;;5054001;28;20120;-72
2022/03/25 08:51:20;;;;;;;26.63;18.67;;;11.80;66.30;;;;;;5055212;28;20739;-72
2022/03/25 08:53:46;;;;;;;29.97;18.83;;;11.80;65.80;;;;;;5054817;28;20580;-73
2022/03/25 08:56:12;;;;;;;26.67;19.40;;;11.80;65.80;;;;;;5054828;28;20496;-73
2022/03/25 08:58:39;;;;;;;30.07;20.30;;;11.80;65.90;;;;;;5054754;28;20501;-73
2022/03/25 09:01:05;;;;;;;32.67;22.87;;;11.80;65.20;;;;;;5054957;28;20286;-73
2022/03/25 09:03:32;;;;;;;35.63;25.03;;;11.80;64.60;;;;;;5053382;28;20284;-75
2022/03/25 09:05:58;;;;;;;39.40;27.83;;;11.70;64.10;;;;;;5054896;28;20056;-73
2022/03/25 09:08:23;;;;;;;42.63;29.57;;;11.70;64.30;;;;;;5053569;28;20293;-73
2022/03/25 09:10:49;;;;;;;47.60;32.37;;;11.70;63.90;;;;;;5054514;28;20083;-72
2022/03/25 09:13:15;;;;;;;48.10;33.93;;;11.60;64.50;;;;;;5053514;28;20068;-70
2022/03/25 09:15:40;;;;;;;47.60;34.07;;;11.60;64.60;;;;;;5054716;28;20045;-71
2022/03/25 09:18:07;;;;;;;46.63;33.33;;;11.70;64.10;;;;;;5054704;28;20041;-72
2022/03/25 09:20:32;;;;;;;42.30;28.47;;;11.60;64.30;;;;;;5052834;28;20045;-78
2022/03/25 09:22:58;;;;;;;42.40;26.50;;;11.60;63.40;;;;;;5052827;28;20803;-72
2022/03/25 09:25:24;;;;;;;38.93;25.57;;;11.70;64.10;;;;;;5053274;28;20056;-70
2022/03/25 09:27:50;;;;;;;34.67;24.60;;;11.80;63.70;;;;;;5054133;28;20049;-71
2022/03/25 09:30:16;;;;;;;35.53;24.73;;;11.80;63.20;;;;;;5054496;28;20037;-70
2022/03/25 09:32:42;;;;;;;35.50;22.30;;;11.80;63.20;;;;;;5052715;28;20894;-70
2022/03/25 09:35:08;;;;;;;39.03;26.33;;;11.90;63.70;;;;;;5052985;28;20299;-70
2022/03/25 09:37:38;;;;;;;39.27;26.03;;;11.90;63.30;;;;;;5036536;28;20345;-79
2022/03/25 09:40:08;;;;;;;36.10;22.53;;;12.00;64.00;;;;;;5054339;28;20095;-70
2022/03/25 09:42:34;;;;;;;34.37;22.10;;;12.10;62.70;;;;;;5054096;28;20432;-71
2022/03/25 09:45:03;;;;;;;36.47;24.90;;;12.20;62.40;;;;;;5052956;28;20374;-70
2022/03/25 09:47:30;;;;;;;39.00;24.47;;;12.20;62.20;;;;;;5054151;28;20688;-72
2022/03/25 09:49:56;;;;;;;34.00;21.47;;;12.30;62.00;;;;;;5053963;28;20291;-72
2022/03/25 09:52:23;;;;;;;35.27;19.67;;;12.30;61.90;;;;;;5052626;28;20279;-75
2022/03/25 09:54:49;;;;;;;29.97;19.73;;;12.40;61.60;;;;;;5053509;28;20299;-70
2022/03/25 09:57:14;;;;;;;29.00;19.57;;;12.50;60.10;;;;;;5053715;28;20279;-71
2022/03/25 09:59:40;;;;;;;31.57;19.40;;;12.60;59.80;;;;;;5035922;28;20150;-71
2022/03/25 10:02:06;;;;;;;49.00;21.43;;;12.60;59.60;;;;;;5036284;28;20148;-70
2022/03/25 10:04:39;;;;;;;48.77;21.30;;;12.70;59.50;;;;;;5052664;28;20063;-70
2022/03/25 10:07:16;;;;;;;35.53;19.57;;;12.70;59.50;;;;;;5053042;28;20371;-79
2022/03/25 10:09:42;;;;;;;30.37;19.63;;;12.80;58.50;;;;;;5053248;28;20283;-72
2022/03/25 10:12:22;;;;;;;31.37;20.27;;;12.70;58.70;;;;;;5053302;28;20287;-72
2022/03/25 10:14:51;;;;;;;35.47;21.03;;;12.80;58.50;;;;;;5052917;28;20768;-72
2022/03/25 10:17:19;;;;;;;31.33;18.93;;;12.80;58.80;;;;;;5053685;28;20279;-72
2022/03/25 10:19:54;;;;;;;30.23;19.00;;;12.90;59.00;;;;;;5053026;28;20771;-72
2022/03/25 10:22:20;;;;;;;33.22;20.08;;;12.90;58.90;;;;;;5053395;28;20290;-72
2022/03/25 10:24:53;;;;;;;30.23;20.20;;;13.00;58.60;;;;;;5052965;28;20048;-72
2022/03/25 10:27:29;;;;;;;30.53;19.30;;;13.00;58.40;;;;;;5053248;28;20268;-72
2022/03/25 10:29:55;;;;;;;31.63;19.83;;;13.00;58.40;;;;;;5053078;28;20612;-72
2022/03/25 10:32:26;;;;;;;29.17;18.63;;;13.00;58.60;;;;;;5052819;28;20297;-72
2022/03/25 10:35:07;;;;;;;30.37;19.60;;;13.00;58.30;;;;;;5052886;28;20292;-72
2022/03/25 10:37:33;;;;;;;26.90;19.00;;;13.00;58.10;;;;;;5053180;28;20280;-72
2022/03/25 10:39:59;;;;;;;32.90;19.63;;;13.10;58.10;;;;;;5052794;28;20286;-72
2022/03/25 10:42:24;;;;;;;29.87;20.33;;;13.20;57.00;;;;;;5053092;28;20049;-72
2022/03/25 10:44:50;;;;;;;30.40;21.97;;;13.30;57.30;;;;;;5052795;28;20037;-72
2022/03/25 10:47:16;;;;;;;36.90;21.87;;;13.30;57.00;;;;;;5053224;28;20476;-72
2022/03/25 10:49:46;;;;;;;32.13;22.20;;;13.40;56.70;;;;;;5052666;28;20056;-79
2022/03/25 10:52:30;;;;;;;31.90;20.60;;;13.50;55.90;;;;;;5052019;28;20155;-72
2022/03/25 10:55:22;;;;;;;33.43;21.10;;;13.50;56.10;;;;;;5052661;28;20794;-78
2022/03/25 10:57:49;;;;;;;32.00;22.73;;;13.50;55.30;;;;;;5052526;28;20654;-76
2022/03/25 11:00:15;;;;;;;35.80;21.90;;;13.60;56.10;;;;;;5053530;28;20371;-76
2022/03/25 11:02:43;;;;;;;30.17;20.13;;;13.70;55.80;;;;;;5053109;28;20354;-75
2022/03/25 11:05:10;;;;;;;28.20;20.23;;;13.80;53.80;;;;;;5053109;28;20271;-75
2022/03/25 11:07:42;;;;;;;27.07;19.77;;;13.70;55.10;;;;;;5051463;28;20302;-76
2022/03/25 11:10:11;;;;;;;36.13;20.83;;;13.80;55.00;;;;;;5052787;28;20311;-76
2022/03/25 11:12:38;;;;;;;34.60;20.80;;;13.80;54.50;;;;;;5052992;28;20295;-75
2022/03/25 11:15:04;;;;;;;34.83;22.27;;;13.80;54.70;;;;;;5052839;28;20386;-75
2022/03/25 11:17:33;;;;;;;28.70;19.77;;;13.80;55.10;;;;;;5052819;28;20723;-75
2022/03/25 11:20:00;;;;;;;30.53;18.40;;;13.90;54.70;;;;;;5035311;28;20333;-75
2022/03/25 11:22:26;;;;;;;31.47;19.43;;;14.00;54.70;;;;;;5052767;28;20279;-75
2022/03/25 11:24:59;;;;;;;33.83;19.80;;;14.00;53.90;;;;;;5052365;28;20362;-76
2022/03/25 11:27:30;;;;;;;30.87;20.60;;;14.00;53.60;;;;;;5052609;28;20350;-75
2022/03/25 11:30:02;;;;;;;28.90;19.17;;;14.00;54.20;;;;;;5052265;28;20326;-75
2022/03/25 11:32:27;;;;;;;29.00;20.63;;;14.20;53.30;;;;;;5051324;28;20773;-75
2022/03/25 11:34:56;;;;;;;33.03;20.40;;;14.20;53.40;;;;;;5052185;28;20295;-74
2022/03/25 11:37:24;;;;;;;27.87;19.50;;;14.20;53.60;;;;;;5052485;28;20053;-74
2022/03/25 11:40:36;;;;;;;30.50;19.77;;;14.20;53.80;;;;;;5052135;28;20287;-75
2022/03/25 11:43:40;;;;;;;30.97;20.63;;;14.30;52.40;;;;;;5051740;28;20391;-72
2022/03/25 11:46:08;;;;;;;35.22;21.20;;;14.30;52.90;;;;;;5041649;28;20655;-72
2022/03/25 11:48:36;;;;;;;30.53;19.80;;;14.40;52.20;;;;;;5056420;28;20068;-74
2022/03/25 11:51:22;;;;;;;32.57;19.60;;;14.50;52.70;;;;;;5055950;28;20298;-74
2022/03/25 11:53:48;;;;;;;29.13;19.13;;;14.50;52.60;;;;;;5056052;28;20299;-74
2022/03/25 11:56:13;;;;;;;27.97;17.17;;;14.50;52.50;;;;;;5056234;28;20279;-73
2022/03/25 11:58:56;;;;;;;24.63;16.50;;;14.40;51.40;;;;;;5056228;28;20563;-74
2022/03/25 12:01:22;;;;;;;27.07;18.23;;;14.50;51.60;;;;;;5056334;28;20040;-73
2022/03/25 12:03:57;;;;;;;28.10;19.40;;;14.50;52.00;;;;;;5056696;28;20777;-73
2022/03/25 12:06:25;;;;;;;26.58;16.90;;;14.50;51.80;;;;;;5059083;28;20307;-73
2022/03/25 12:08:59;;;;;;;29.83;17.10;;;14.50;51.40;;;;;;5054683;28;20084;-75
2022/03/25 12:11:53;;;;;;;29.08;16.85;;;14.60;50.90;;;;;;5054802;28;20648;-70
2022/03/25 12:14:21;;;;;;;25.63;15.80;;;14.60;49.30;;;;;;5055829;28;20048;-73
2022/03/25 12:16:51;;;;;;;26.13;16.17;;;14.60;50.80;;;;;;5055918;28;20315;-78
2022/03/25 12:19:26;;;;;;;24.70;15.60;;;14.60;50.80;;;;;;5055813;28;20329;-81
2022/03/25 12:21:52;;;;;;;29.50;15.48;;;14.70;48.70;;;;;;5055734;28;20334;-77
2022/03/25 12:24:19;;;;;;;27.63;14.70;;;14.70;48.90;;;;;;5055818;28;20126;-81
2022/03/25 12:26:44;;;;;;;26.80;15.23;;;14.80;47.60;;;;;;5055344;28;20290;-81
2022/03/25 12:29:10;;;;;;;25.37;15.00;;;14.80;48.10;;;;;;5055447;28;20271;-81
2022/03/25 12:31:37;;;;;;;24.87;14.63;;;14.80;47.50;;;;;;5055529;28;20513;-73
2022/03/25 12:34:05;;;;;;;23.03;13.07;;;14.80;48.20;;;;;;5055266;28;20048;-75
2022/03/25 12:36:42;;;;;;;30.13;12.33;;;14.90;47.40;;;;;;5055753;28;20314;-76
2022/03/25 12:39:14;;;;;;;22.53;13.27;;;14.90;46.10;;;;;;5055176;28;20272;-76
2022/03/25 12:41:46;;;;;;;23.20;13.70;;;14.90;46.40;;;;;;5054362;28;20284;-76